sensor_id;sensor_type;location;lat;lon;timestamp;P1;durP1;ratioP1;P2;durP2;ratioP2
67640;SDS011;54434;50.096;20.082;2023-04-01T00:00:02;6.20;;;2.30;;
67640;SDS011;54434;50.096;20.082;2023-04-01T00:05:39;4.30;;;1.70;;
67640;SDS011;54434;50.096;20.082;2023-04-01T00:08:15;3.80;;;1.60;;
67640;SDS011;54434;50.096;20.082;2023-04-01T00:10:52;3.40;;;1.70;;
67640;SDS011;54434;50.096;20.082;2023-04-01T00:13:30;4.80;;;1.70;;
67640;SDS011;54434;50.096;20.082;2023-04-01T00:16:08;4.30;;;2.00;;
67640;SDS011;54434;50.096;20.082;2023-04-01T00:18:54;2.80;;;1.50;;
67640;SDS011;54434;50.096;20.082;2023-04-01T00:21:30;5.50;;;2.10;;
67640;SDS011;54434;50.096;20.082;2023-04-01T00:24:07;3.50;;;1.90;;
67640;SDS011;54434;50.096;20.082;2023-04-01T00:26:43;3.50;;;1.80;;
67640;SDS011;54434;50.096;20.082;2023-04-01T00:29:21;5.00;;;1.60;;
67640;SDS011;54434;50.096;20.082;2023-04-01T00:32:02;3.70;;;1.70;;
67640;SDS011;54434;50.096;20.082;2023-04-01T00:34:39;3.80;;;1.60;;
67640;SDS011;54434;50.096;20.082;2023-04-01T00:37:15;4.50;;;1.70;;
67640;SDS011;54434;50.096;20.082;2023-04-01T00:39:52;3.50;;;1.70;;
67640;SDS011;54434;50.096;20.082;2023-04-01T00:42:29;5.50;;;1.90;;
67640;SDS011;54434;50.096;20.082;2023-04-01T00:45:30;4.50;;;1.80;;
67640;SDS011;54434;50.096;20.082;2023-04-01T00:48:13;2.80;;;1.40;;
67640;SDS011;54434;50.096;20.082;2023-04-01T00:50:55;4.20;;;1.80;;
67640;SDS011;54434;50.096;20.082;2023-04-01T00:53:38;4.10;;;1.90;;
67640;SDS011;54434;50.096;20.082;2023-04-01T00:56:21;5.00;;;2.20;;
67640;SDS011;54434;50.096;20.082;2023-04-01T00:59:04;4.30;;;2.10;;
67640;SDS011;54434;50.096;20.082;2023-04-01T01:01:44;4.50;;;2.10;;
67640;SDS011;54434;50.096;20.082;2023-04-01T01:04:28;4.50;;;1.90;;
67640;SDS011;54434;50.096;20.082;2023-04-01T01:07:16;5.00;;;2.00;;
67640;SDS011;54434;50.096;20.082;2023-04-01T01:10:08;5.20;;;1.80;;
67640;SDS011;54434;50.096;20.082;2023-04-01T01:12:56;6.70;;;1.90;;
67640;SDS011;54434;50.096;20.082;2023-04-01T01:15:44;3.20;;;1.70;;
67640;SDS011;54434;50.096;20.082;2023-04-01T01:18:32;6.20;;;1.90;;
67640;SDS011;54434;50.096;20.082;2023-04-01T01:21:33;4.90;;;1.90;;
67640;SDS011;54434;50.096;20.082;2023-04-01T01:24:47;4.30;;;1.90;;
67640;SDS011;54434;50.096;20.082;2023-04-01T01:27:29;3.60;;;2.00;;
67640;SDS011;54434;50.096;20.082;2023-04-01T01:30:39;4.30;;;1.70;;
67640;SDS011;54434;50.096;20.082;2023-04-01T01:33:43;3.20;;;1.80;;
67640;SDS011;54434;50.096;20.082;2023-04-01T01:36:32;4.40;;;1.90;;
67640;SDS011;54434;50.096;20.082;2023-04-01T01:39:14;7.70;;;1.90;;
67640;SDS011;54434;50.096;20.082;2023-04-01T01:41:51;4.90;;;2.00;;
67640;SDS011;54434;50.096;20.082;2023-04-01T01:44:31;3.70;;;1.90;;
67640;SDS011;54434;50.096;20.082;2023-04-01T01:47:10;3.80;;;1.90;;
67640;SDS011;54434;50.096;20.082;2023-04-01T01:49:49;6.50;;;2.20;;
67640;SDS011;54434;50.096;20.082;2023-04-01T01:52:28;7.30;;;2.10;;
67640;SDS011;54434;50.096;20.082;2023-04-01T01:55:29;4.30;;;1.90;;
67640;SDS011;54434;50.096;20.082;2023-04-01T01:58:13;5.70;;;2.20;;
67640;SDS011;54434;50.096;20.082;2023-04-01T02:00:58;3.40;;;1.90;;
67640;SDS011;54434;50.096;20.082;2023-04-01T02:03:39;7.40;;;2.10;;
67640;SDS011;54434;50.096;20.082;2023-04-01T02:06:21;4.00;;;2.00;;
67640;SDS011;54434;50.096;20.082;2023-04-01T02:09:02;4.80;;;2.20;;
67640;SDS011;54434;50.096;20.082;2023-04-01T02:11:43;5.70;;;2.10;;
67640;SDS011;54434;50.096;20.082;2023-04-01T02:14:25;5.30;;;2.10;;
67640;SDS011;54434;50.096;20.082;2023-04-01T02:17:07;6.30;;;2.10;;
67640;SDS011;54434;50.096;20.082;2023-04-01T02:19:49;5.80;;;2.80;;
67640;SDS011;54434;50.096;20.082;2023-04-01T02:22:33;7.10;;;2.20;;
67640;SDS011;54434;50.096;20.082;2023-04-01T02:27:52;4.00;;;2.00;;
67640;SDS011;54434;50.096;20.082;2023-04-01T02:30:33;3.90;;;1.90;;
67640;SDS011;54434;50.096;20.082;2023-04-01T02:33:11;5.60;;;2.40;;
67640;SDS011;54434;50.096;20.082;2023-04-01T02:35:48;6.20;;;2.20;;
67640;SDS011;54434;50.096;20.082;2023-04-01T02:38:25;5.20;;;2.30;;
67640;SDS011;54434;50.096;20.082;2023-04-01T02:41:04;5.70;;;2.10;;
67640;SDS011;54434;50.096;20.082;2023-04-01T02:43:40;5.20;;;2.10;;
67640;SDS011;54434;50.096;20.082;2023-04-01T02:46:17;5.60;;;2.20;;
67640;SDS011;54434;50.096;20.082;2023-04-01T02:48:53;5.10;;;2.10;;
67640;SDS011;54434;50.096;20.082;2023-04-01T02:51:30;5.30;;;1.80;;
67640;SDS011;54434;50.096;20.082;2023-04-01T02:54:07;6.50;;;1.90;;
67640;SDS011;54434;50.096;20.082;2023-04-01T02:56:44;5.30;;;2.00;;
67640;SDS011;54434;50.096;20.082;2023-04-01T02:59:20;5.10;;;2.20;;
67640;SDS011;54434;50.096;20.082;2023-04-01T03:01:57;4.20;;;2.00;;
67640;SDS011;54434;50.096;20.082;2023-04-01T03:04:33;6.20;;;1.90;;
67640;SDS011;54434;50.096;20.082;2023-04-01T03:07:10;4.90;;;2.10;;
67640;SDS011;54434;50.096;20.082;2023-04-01T03:09:46;3.80;;;2.00;;
67640;SDS011;54434;50.096;20.082;2023-04-01T03:12:24;6.70;;;2.00;;
67640;SDS011;54434;50.096;20.082;2023-04-01T03:15:00;5.50;;;2.00;;
67640;SDS011;54434;50.096;20.082;2023-04-01T03:17:44;4.50;;;2.10;;
67640;SDS011;54434;50.096;20.082;2023-04-01T03:20:21;4.80;;;1.80;;
67640;SDS011;54434;50.096;20.082;2023-04-01T03:22:58;5.90;;;1.90;;
67640;SDS011;54434;50.096;20.082;2023-04-01T03:25:35;5.70;;;2.20;;
67640;SDS011;54434;50.096;20.082;2023-04-01T03:28:12;4.10;;;1.80;;
67640;SDS011;54434;50.096;20.082;2023-04-01T03:30:48;6.00;;;2.10;;
67640;SDS011;54434;50.096;20.082;2023-04-01T03:33:25;4.10;;;2.00;;
67640;SDS011;54434;50.096;20.082;2023-04-01T03:36:02;5.60;;;2.30;;
67640;SDS011;54434;50.096;20.082;2023-04-01T03:38:41;5.70;;;2.00;;
67640;SDS011;54434;50.096;20.082;2023-04-01T03:41:19;3.90;;;2.00;;
67640;SDS011;54434;50.096;20.082;2023-04-01T03:43:56;4.80;;;1.90;;
67640;SDS011;54434;50.096;20.082;2023-04-01T03:46:32;6.70;;;2.10;;
67640;SDS011;54434;50.096;20.082;2023-04-01T03:49:11;5.20;;;2.20;;
67640;SDS011;54434;50.096;20.082;2023-04-01T03:51:47;6.00;;;1.80;;
67640;SDS011;54434;50.096;20.082;2023-04-01T03:54:24;4.10;;;2.20;;
67640;SDS011;54434;50.096;20.082;2023-04-01T03:57:00;5.90;;;1.90;;
67640;SDS011;54434;50.096;20.082;2023-04-01T03:59:37;5.40;;;2.00;;
67640;SDS011;54434;50.096;20.082;2023-04-01T04:02:14;5.50;;;2.30;;
67640;SDS011;54434;50.096;20.082;2023-04-01T04:04:51;4.10;;;1.80;;
67640;SDS011;54434;50.096;20.082;2023-04-01T04:07:28;5.50;;;2.20;;
67640;SDS011;54434;50.096;20.082;2023-04-01T04:10:09;6.60;;;2.30;;
67640;SDS011;54434;50.096;20.082;2023-04-01T04:12:46;5.10;;;1.90;;
67640;SDS011;54434;50.096;20.082;2023-04-01T04:15:24;7.10;;;2.60;;
67640;SDS011;54434;50.096;20.082;2023-04-01T04:18:00;4.60;;;2.40;;
67640;SDS011;54434;50.096;20.082;2023-04-01T04:20:37;5.20;;;2.10;;
67640;SDS011;54434;50.096;20.082;2023-04-01T04:23:22;5.90;;;2.20;;
67640;SDS011;54434;50.096;20.082;2023-04-01T04:26:01;5.00;;;2.10;;
67640;SDS011;54434;50.096;20.082;2023-04-01T04:28:39;5.90;;;2.70;;
67640;SDS011;54434;50.096;20.082;2023-04-01T04:31:21;5.80;;;2.50;;
67640;SDS011;54434;50.096;20.082;2023-04-01T04:34:01;5.70;;;2.40;;
67640;SDS011;54434;50.096;20.082;2023-04-01T04:36:39;6.30;;;2.20;;
67640;SDS011;54434;50.096;20.082;2023-04-01T04:39:16;4.90;;;2.20;;
67640;SDS011;54434;50.096;20.082;2023-04-01T04:41:53;8.30;;;2.40;;
67640;SDS011;54434;50.096;20.082;2023-04-01T04:44:30;4.40;;;2.50;;
67640;SDS011;54434;50.096;20.082;2023-04-01T04:47:06;6.60;;;2.40;;
67640;SDS011;54434;50.096;20.082;2023-04-01T04:49:44;7.00;;;2.30;;
67640;SDS011;54434;50.096;20.082;2023-04-01T04:52:20;5.50;;;2.20;;
67640;SDS011;54434;50.096;20.082;2023-04-01T04:54:57;5.80;;;2.60;;
67640;SDS011;54434;50.096;20.082;2023-04-01T04:57:34;3.50;;;2.10;;
67640;SDS011;54434;50.096;20.082;2023-04-01T05:00:12;6.40;;;3.30;;
67640;SDS011;54434;50.096;20.082;2023-04-01T05:03:01;5.00;;;2.20;;
67640;SDS011;54434;50.096;20.082;2023-04-01T05:05:38;8.30;;;2.40;;
67640;SDS011;54434;50.096;20.082;2023-04-01T05:08:22;6.40;;;2.50;;
67640;SDS011;54434;50.096;20.082;2023-04-01T05:10:59;6.70;;;2.50;;
67640;SDS011;54434;50.096;20.082;2023-04-01T05:13:37;6.70;;;2.30;;
67640;SDS011;54434;50.096;20.082;2023-04-01T05:16:16;8.30;;;2.70;;
67640;SDS011;54434;50.096;20.082;2023-04-01T05:18:53;5.60;;;2.30;;
67640;SDS011;54434;50.096;20.082;2023-04-01T05:21:30;5.00;;;2.20;;
67640;SDS011;54434;50.096;20.082;2023-04-01T05:24:10;7.40;;;2.80;;
67640;SDS011;54434;50.096;20.082;2023-04-01T05:26:47;7.40;;;2.40;;
67640;SDS011;54434;50.096;20.082;2023-04-01T05:29:27;7.30;;;2.30;;
67640;SDS011;54434;50.096;20.082;2023-04-01T05:32:10;5.50;;;2.20;;
67640;SDS011;54434;50.096;20.082;2023-04-01T05:34:46;6.90;;;2.40;;
67640;SDS011;54434;50.096;20.082;2023-04-01T05:37:24;7.20;;;2.40;;
67640;SDS011;54434;50.096;20.082;2023-04-01T05:40:02;6.10;;;2.10;;
67640;SDS011;54434;50.096;20.082;2023-04-01T05:42:40;6.00;;;2.20;;
67640;SDS011;54434;50.096;20.082;2023-04-01T05:45:17;5.30;;;1.80;;
67640;SDS011;54434;50.096;20.082;2023-04-01T05:48:12;3.50;;;2.00;;
67640;SDS011;54434;50.096;20.082;2023-04-01T05:50:49;4.30;;;2.00;;
67640;SDS011;54434;50.096;20.082;2023-04-01T05:53:26;5.40;;;2.30;;
67640;SDS011;54434;50.096;20.082;2023-04-01T05:56:07;5.40;;;2.00;;
67640;SDS011;54434;50.096;20.082;2023-04-01T05:58:50;4.80;;;1.90;;
67640;SDS011;54434;50.096;20.082;2023-04-01T06:01:31;5.90;;;2.00;;
67640;SDS011;54434;50.096;20.082;2023-04-01T06:04:09;6.60;;;2.00;;
67640;SDS011;54434;50.096;20.082;2023-04-01T06:06:47;5.70;;;1.90;;
67640;SDS011;54434;50.096;20.082;2023-04-01T06:09:29;6.20;;;1.90;;
67640;SDS011;54434;50.096;20.082;2023-04-01T06:12:23;4.00;;;1.80;;
67640;SDS011;54434;50.096;20.082;2023-04-01T06:15:23;6.20;;;1.80;;
67640;SDS011;54434;50.096;20.082;2023-04-01T06:18:38;6.70;;;2.40;;
67640;SDS011;54434;50.096;20.082;2023-04-01T06:21:40;5.70;;;2.10;;
67640;SDS011;54434;50.096;20.082;2023-04-01T06:24:45;5.80;;;2.20;;
67640;SDS011;54434;50.096;20.082;2023-04-01T06:27:48;4.80;;;1.80;;
67640;SDS011;54434;50.096;20.082;2023-04-01T06:30:42;6.50;;;2.00;;
67640;SDS011;54434;50.096;20.082;2023-04-01T06:33:42;5.50;;;2.10;;
67640;SDS011;54434;50.096;20.082;2023-04-01T06:36:57;5.20;;;1.90;;
67640;SDS011;54434;50.096;20.082;2023-04-01T06:40:01;5.00;;;1.90;;
67640;SDS011;54434;50.096;20.082;2023-04-01T06:43:14;4.50;;;1.90;;
67640;SDS011;54434;50.096;20.082;2023-04-01T06:46:22;4.20;;;1.80;;
67640;SDS011;54434;50.096;20.082;2023-04-01T06:49:48;5.30;;;1.90;;
67640;SDS011;54434;50.096;20.082;2023-04-01T06:53:00;6.10;;;2.00;;
67640;SDS011;54434;50.096;20.082;2023-04-01T06:56:12;6.90;;;2.40;;
67640;SDS011;54434;50.096;20.082;2023-04-01T06:59:08;6.30;;;2.00;;
67640;SDS011;54434;50.096;20.082;2023-04-01T07:01:52;6.40;;;2.20;;
67640;SDS011;54434;50.096;20.082;2023-04-01T07:04:35;6.00;;;2.00;;
67640;SDS011;54434;50.096;20.082;2023-04-01T07:07:24;4.60;;;2.10;;
67640;SDS011;54434;50.096;20.082;2023-04-01T07:10:15;5.50;;;2.20;;
67640;SDS011;54434;50.096;20.082;2023-04-01T07:13:54;7.40;;;2.40;;
67640;SDS011;54434;50.096;20.082;2023-04-01T07:16:37;6.60;;;2.30;;
67640;SDS011;54434;50.096;20.082;2023-04-01T07:19:23;5.90;;;2.20;;
67640;SDS011;54434;50.096;20.082;2023-04-01T07:22:19;7.20;;;2.30;;
67640;SDS011;54434;50.096;20.082;2023-04-01T07:25:44;6.10;;;2.20;;
67640;SDS011;54434;50.096;20.082;2023-04-01T07:28:40;6.30;;;2.00;;
67640;SDS011;54434;50.096;20.082;2023-04-01T07:31:51;5.60;;;2.10;;
67640;SDS011;54434;50.096;20.082;2023-04-01T07:34:46;5.00;;;2.10;;
67640;SDS011;54434;50.096;20.082;2023-04-01T07:37:34;4.90;;;2.20;;
67640;SDS011;54434;50.096;20.082;2023-04-01T07:40:26;4.90;;;2.10;;
67640;SDS011;54434;50.096;20.082;2023-04-01T07:43:58;4.00;;;2.00;;
67640;SDS011;54434;50.096;20.082;2023-04-01T07:47:01;4.60;;;2.30;;
67640;SDS011;54434;50.096;20.082;2023-04-01T07:49:59;7.40;;;2.40;;
67640;SDS011;54434;50.096;20.082;2023-04-01T07:52:53;7.30;;;2.60;;
67640;SDS011;54434;50.096;20.082;2023-04-01T07:55:49;5.20;;;2.50;;
67640;SDS011;54434;50.096;20.082;2023-04-01T07:58:37;4.90;;;2.20;;
67640;SDS011;54434;50.096;20.082;2023-04-01T08:01:35;5.10;;;2.40;;
67640;SDS011;54434;50.096;20.082;2023-04-01T08:04:40;6.10;;;2.40;;
67640;SDS011;54434;50.096;20.082;2023-04-01T08:07:33;7.20;;;2.30;;
67640;SDS011;54434;50.096;20.082;2023-04-01T08:10:39;5.50;;;2.60;;
67640;SDS011;54434;50.096;20.082;2023-04-01T08:13:44;6.40;;;2.10;;
67640;SDS011;54434;50.096;20.082;2023-04-01T08:16:54;5.90;;;2.60;;
67640;SDS011;54434;50.096;20.082;2023-04-01T08:19:56;4.60;;;2.10;;
67640;SDS011;54434;50.096;20.082;2023-04-01T08:22:45;6.00;;;2.00;;
67640;SDS011;54434;50.096;20.082;2023-04-01T08:25:31;5.20;;;2.10;;
67640;SDS011;54434;50.096;20.082;2023-04-01T08:28:20;6.20;;;1.90;;
67640;SDS011;54434;50.096;20.082;2023-04-01T08:31:05;4.60;;;2.20;;
67640;SDS011;54434;50.096;20.082;2023-04-01T08:33:50;11.90;;;5.40;;
67640;SDS011;54434;50.096;20.082;2023-04-01T08:36:34;5.90;;;2.20;;
67640;SDS011;54434;50.096;20.082;2023-04-01T08:39:28;6.80;;;2.30;;
67640;SDS011;54434;50.096;20.082;2023-04-01T08:46:04;6.00;;;2.30;;
67640;SDS011;54434;50.096;20.082;2023-04-01T08:49:10;6.10;;;2.30;;
67640;SDS011;54434;50.096;20.082;2023-04-01T08:52:27;5.30;;;2.30;;
67640;SDS011;54434;50.096;20.082;2023-04-01T08:55:47;4.60;;;2.00;;
67640;SDS011;54434;50.096;20.082;2023-04-01T08:58:52;4.80;;;1.80;;
67640;SDS011;54434;50.096;20.082;2023-04-01T09:06:06;4.80;;;1.90;;
67640;SDS011;54434;50.096;20.082;2023-04-01T09:12:51;4.50;;;2.10;;
67640;SDS011;54434;50.096;20.082;2023-04-01T09:16:00;5.90;;;2.60;;
67640;SDS011;54434;50.096;20.082;2023-04-01T09:22:15;5.30;;;1.90;;
67640;SDS011;54434;50.096;20.082;2023-04-01T09:25:38;3.60;;;1.60;;
67640;SDS011;54434;50.096;20.082;2023-04-01T09:28:33;7.90;;;3.80;;
67640;SDS011;54434;50.096;20.082;2023-04-01T09:31:28;4.50;;;2.00;;
67640;SDS011;54434;50.096;20.082;2023-04-01T09:37:46;4.80;;;2.20;;
67640;SDS011;54434;50.096;20.082;2023-04-01T09:40:46;9.20;;;2.10;;
67640;SDS011;54434;50.096;20.082;2023-04-01T09:44:00;5.30;;;2.30;;
67640;SDS011;54434;50.096;20.082;2023-04-01T09:47:04;5.60;;;2.50;;
67640;SDS011;54434;50.096;20.082;2023-04-01T09:50:12;3.80;;;2.20;;
67640;SDS011;54434;50.096;20.082;2023-04-01T09:53:11;5.50;;;2.50;;
67640;SDS011;54434;50.096;20.082;2023-04-01T09:56:46;5.00;;;2.10;;
67640;SDS011;54434;50.096;20.082;2023-04-01T10:00:06;3.90;;;2.10;;
67640;SDS011;54434;50.096;20.082;2023-04-01T10:07:24;3.70;;;2.00;;
67640;SDS011;54434;50.096;20.082;2023-04-01T10:10:55;4.70;;;2.10;;
67640;SDS011;54434;50.096;20.082;2023-04-01T10:14:16;5.40;;;2.20;;
67640;SDS011;54434;50.096;20.082;2023-04-01T10:20:57;5.60;;;2.10;;
67640;SDS011;54434;50.096;20.082;2023-04-01T10:24:05;8.30;;;2.40;;
67640;SDS011;54434;50.096;20.082;2023-04-01T10:27:21;4.90;;;2.20;;
67640;SDS011;54434;50.096;20.082;2023-04-01T10:31:03;12.50;;;2.80;;
67640;SDS011;54434;50.096;20.082;2023-04-01T10:48:52;5.30;;;2.70;;
67640;SDS011;54434;50.096;20.082;2023-04-01T10:56:41;4.80;;;2.30;;
67640;SDS011;54434;50.096;20.082;2023-04-01T11:00:14;4.40;;;2.10;;
67640;SDS011;54434;50.096;20.082;2023-04-01T11:12:49;2.80;;;2.10;;
67640;SDS011;54434;50.096;20.082;2023-04-01T11:20:04;3.10;;;1.90;;
67640;SDS011;54434;50.096;20.082;2023-04-01T11:23:54;5.20;;;2.30;;
67640;SDS011;54434;50.096;20.082;2023-04-01T11:33:07;4.60;;;2.80;;
67640;SDS011;54434;50.096;20.082;2023-04-01T11:36:11;4.90;;;2.40;;
67640;SDS011;54434;50.096;20.082;2023-04-01T11:39:15;4.20;;;2.20;;
67640;SDS011;54434;50.096;20.082;2023-04-01T11:42:27;3.90;;;2.20;;
67640;SDS011;54434;50.096;20.082;2023-04-01T11:45:37;4.20;;;2.00;;
67640;SDS011;54434;50.096;20.082;2023-04-01T11:48:45;6.20;;;2.80;;
67640;SDS011;54434;50.096;20.082;2023-04-01T11:51:52;4.60;;;2.50;;
67640;SDS011;54434;50.096;20.082;2023-04-01T11:55:05;4.10;;;2.10;;
67640;SDS011;54434;50.096;20.082;2023-04-01T11:58:26;4.90;;;2.30;;
67640;SDS011;54434;50.096;20.082;2023-04-01T12:01:35;5.10;;;2.60;;
67640;SDS011;54434;50.096;20.082;2023-04-01T12:04:49;4.30;;;1.90;;
67640;SDS011;54434;50.096;20.082;2023-04-01T12:07:55;3.40;;;2.00;;
67640;SDS011;54434;50.096;20.082;2023-04-01T12:10:52;4.60;;;2.50;;
67640;SDS011;54434;50.096;20.082;2023-04-01T12:13:45;6.80;;;2.60;;
67640;SDS011;54434;50.096;20.082;2023-04-01T12:16:45;5.30;;;2.40;;
67640;SDS011;54434;50.096;20.082;2023-04-01T12:19:42;4.10;;;2.40;;
67640;SDS011;54434;50.096;20.082;2023-04-01T12:22:48;4.00;;;2.20;;
67640;SDS011;54434;50.096;20.082;2023-04-01T12:26:03;4.30;;;2.30;;
67640;SDS011;54434;50.096;20.082;2023-04-01T12:29:06;3.80;;;2.00;;
67640;SDS011;54434;50.096;20.082;2023-04-01T12:31:56;4.00;;;2.10;;
67640;SDS011;54434;50.096;20.082;2023-04-01T12:35:08;4.10;;;2.20;;
67640;SDS011;54434;50.096;20.082;2023-04-01T12:38:20;3.40;;;2.00;;
67640;SDS011;54434;50.096;20.082;2023-04-01T12:41:16;3.70;;;2.00;;
67640;SDS011;54434;50.096;20.082;2023-04-01T12:44:48;3.50;;;1.90;;
67640;SDS011;54434;50.096;20.082;2023-04-01T12:48:01;3.80;;;1.60;;
67640;SDS011;54434;50.096;20.082;2023-04-01T12:51:34;2.40;;;1.80;;
67640;SDS011;54434;50.096;20.082;2023-04-01T12:54:57;2.80;;;1.80;;
67640;SDS011;54434;50.096;20.082;2023-04-01T12:58:32;4.90;;;2.00;;
67640;SDS011;54434;50.096;20.082;2023-04-01T13:02:01;3.00;;;1.90;;
67640;SDS011;54434;50.096;20.082;2023-04-01T13:05:35;3.00;;;2.00;;
67640;SDS011;54434;50.096;20.082;2023-04-01T13:08:39;3.00;;;1.90;;
67640;SDS011;54434;50.096;20.082;2023-04-01T13:11:30;4.10;;;2.00;;
67640;SDS011;54434;50.096;20.082;2023-04-01T13:14:44;8.80;;;4.70;;
67640;SDS011;54434;50.096;20.082;2023-04-01T13:17:43;4.20;;;2.30;;
67640;SDS011;54434;50.096;20.082;2023-04-01T13:20:40;4.30;;;2.20;;
67640;SDS011;54434;50.096;20.082;2023-04-01T13:23:41;3.70;;;2.10;;
67640;SDS011;54434;50.096;20.082;2023-04-01T13:26:33;4.60;;;2.10;;
67640;SDS011;54434;50.096;20.082;2023-04-01T13:29:17;4.10;;;1.90;;
67640;SDS011;54434;50.096;20.082;2023-04-01T13:32:09;4.30;;;2.60;;
67640;SDS011;54434;50.096;20.082;2023-04-01T13:35:30;3.60;;;2.00;;
67640;SDS011;54434;50.096;20.082;2023-04-01T13:38:40;4.20;;;1.80;;
67640;SDS011;54434;50.096;20.082;2023-04-01T13:42:14;3.50;;;1.90;;
67640;SDS011;54434;50.096;20.082;2023-04-01T13:45:03;4.60;;;2.10;;
67640;SDS011;54434;50.096;20.082;2023-04-01T13:51:37;4.20;;;2.00;;
67640;SDS011;54434;50.096;20.082;2023-04-01T13:55:02;4.20;;;2.10;;
67640;SDS011;54434;50.096;20.082;2023-04-01T14:01:15;6.70;;;3.60;;
67640;SDS011;54434;50.096;20.082;2023-04-01T14:04:45;5.40;;;2.40;;
67640;SDS011;54434;50.096;20.082;2023-04-01T14:07:45;3.90;;;2.00;;
67640;SDS011;54434;50.096;20.082;2023-04-01T14:10:39;3.40;;;1.60;;
67640;SDS011;54434;50.096;20.082;2023-04-01T14:13:26;3.70;;;2.10;;
67640;SDS011;54434;50.096;20.082;2023-04-01T14:16:54;2.70;;;1.40;;
67640;SDS011;54434;50.096;20.082;2023-04-01T14:19:52;10.80;;;2.30;;
67640;SDS011;54434;50.096;20.082;2023-04-01T14:22:55;2.80;;;1.80;;
67640;SDS011;54434;50.096;20.082;2023-04-01T14:26:21;7.00;;;2.60;;
67640;SDS011;54434;50.096;20.082;2023-04-01T14:29:20;6.70;;;2.30;;
67640;SDS011;54434;50.096;20.082;2023-04-01T14:32:15;8.10;;;2.40;;
67640;SDS011;54434;50.096;20.082;2023-04-01T14:35:20;10.70;;;4.60;;
67640;SDS011;54434;50.096;20.082;2023-04-01T14:38:28;4.00;;;2.50;;
67640;SDS011;54434;50.096;20.082;2023-04-01T14:41:33;11.60;;;3.00;;
67640;SDS011;54434;50.096;20.082;2023-04-01T14:44:36;4.60;;;2.30;;
67640;SDS011;54434;50.096;20.082;2023-04-01T14:47:51;8.60;;;3.90;;
67640;SDS011;54434;50.096;20.082;2023-04-01T14:50:42;6.40;;;3.10;;
67640;SDS011;54434;50.096;20.082;2023-04-01T14:53:30;6.70;;;3.10;;
67640;SDS011;54434;50.096;20.082;2023-04-01T14:56:12;5.60;;;2.60;;
67640;SDS011;54434;50.096;20.082;2023-04-01T14:59:17;7.30;;;2.40;;
67640;SDS011;54434;50.096;20.082;2023-04-01T15:02:18;11.50;;;3.40;;
67640;SDS011;54434;50.096;20.082;2023-04-01T15:05:16;6.50;;;2.60;;
67640;SDS011;54434;50.096;20.082;2023-04-01T15:08:16;5.40;;;2.90;;
67640;SDS011;54434;50.096;20.082;2023-04-01T15:11:25;6.60;;;3.00;;
67640;SDS011;54434;50.096;20.082;2023-04-01T15:14:30;8.40;;;3.10;;
67640;SDS011;54434;50.096;20.082;2023-04-01T15:17:45;6.30;;;2.80;;
67640;SDS011;54434;50.096;20.082;2023-04-01T15:21:13;7.90;;;3.70;;
67640;SDS011;54434;50.096;20.082;2023-04-01T15:24:10;8.30;;;3.30;;
67640;SDS011;54434;50.096;20.082;2023-04-01T15:27:31;5.80;;;3.00;;
67640;SDS011;54434;50.096;20.082;2023-04-01T15:30:35;8.40;;;3.70;;
67640;SDS011;54434;50.096;20.082;2023-04-01T15:33:45;7.30;;;3.50;;
67640;SDS011;54434;50.096;20.082;2023-04-01T15:36:40;8.20;;;3.50;;
67640;SDS011;54434;50.096;20.082;2023-04-01T15:39:37;6.80;;;3.30;;
67640;SDS011;54434;50.096;20.082;2023-04-01T15:42:51;6.20;;;3.20;;
67640;SDS011;54434;50.096;20.082;2023-04-01T15:45:51;6.70;;;3.10;;
67640;SDS011;54434;50.096;20.082;2023-04-01T15:48:57;7.70;;;3.00;;
67640;SDS011;54434;50.096;20.082;2023-04-01T15:51:56;5.80;;;2.90;;
67640;SDS011;54434;50.096;20.082;2023-04-01T15:55:19;4.70;;;2.50;;
67640;SDS011;54434;50.096;20.082;2023-04-01T15:58:21;6.70;;;3.00;;
67640;SDS011;54434;50.096;20.082;2023-04-01T16:01:34;7.70;;;3.40;;
67640;SDS011;54434;50.096;20.082;2023-04-01T16:04:46;6.70;;;3.00;;
67640;SDS011;54434;50.096;20.082;2023-04-01T16:07:42;7.30;;;3.70;;
67640;SDS011;54434;50.096;20.082;2023-04-01T16:10:41;5.90;;;3.20;;
67640;SDS011;54434;50.096;20.082;2023-04-01T16:13:47;7.00;;;3.80;;
67640;SDS011;54434;50.096;20.082;2023-04-01T16:16:44;7.90;;;3.60;;
67640;SDS011;54434;50.096;20.082;2023-04-01T16:19:40;6.90;;;3.80;;
67640;SDS011;54434;50.096;20.082;2023-04-01T16:22:29;8.70;;;3.90;;
67640;SDS011;54434;50.096;20.082;2023-04-01T16:25:25;12.30;;;4.40;;
67640;SDS011;54434;50.096;20.082;2023-04-01T16:28:21;7.70;;;4.00;;
67640;SDS011;54434;50.096;20.082;2023-04-01T16:31:06;7.50;;;4.10;;
67640;SDS011;54434;50.096;20.082;2023-04-01T16:33:55;6.60;;;4.10;;
67640;SDS011;54434;50.096;20.082;2023-04-01T16:36:44;8.20;;;3.90;;
67640;SDS011;54434;50.096;20.082;2023-04-01T16:39:36;9.70;;;3.40;;
67640;SDS011;54434;50.096;20.082;2023-04-01T16:42:43;6.60;;;3.40;;
67640;SDS011;54434;50.096;20.082;2023-04-01T16:45:37;7.20;;;3.70;;
67640;SDS011;54434;50.096;20.082;2023-04-01T16:48:20;21.50;;;4.80;;
67640;SDS011;54434;50.096;20.082;2023-04-01T16:51:08;8.40;;;3.60;;
67640;SDS011;54434;50.096;20.082;2023-04-01T16:53:50;15.60;;;4.20;;
67640;SDS011;54434;50.096;20.082;2023-04-01T16:56:45;7.70;;;3.90;;
67640;SDS011;54434;50.096;20.082;2023-04-01T16:59:33;8.10;;;4.00;;
67640;SDS011;54434;50.096;20.082;2023-04-01T17:02:16;8.00;;;3.70;;
67640;SDS011;54434;50.096;20.082;2023-04-01T17:05:03;6.90;;;3.90;;
67640;SDS011;54434;50.096;20.082;2023-04-01T17:07:55;7.90;;;4.20;;
67640;SDS011;54434;50.096;20.082;2023-04-01T17:10:52;8.90;;;4.50;;
67640;SDS011;54434;50.096;20.082;2023-04-01T17:13:43;8.40;;;4.30;;
67640;SDS011;54434;50.096;20.082;2023-04-01T17:16:49;7.30;;;4.40;;
67640;SDS011;54434;50.096;20.082;2023-04-01T17:20:00;9.10;;;4.60;;
67640;SDS011;54434;50.096;20.082;2023-04-01T17:22:57;8.20;;;5.00;;
67640;SDS011;54434;50.096;20.082;2023-04-01T17:25:55;8.70;;;5.30;;
67640;SDS011;54434;50.096;20.082;2023-04-01T17:28:49;8.90;;;5.10;;
67640;SDS011;54434;50.096;20.082;2023-04-01T17:31:46;9.00;;;5.70;;
67640;SDS011;54434;50.096;20.082;2023-04-01T17:34:40;11.10;;;6.30;;
67640;SDS011;54434;50.096;20.082;2023-04-01T17:37:51;12.00;;;7.70;;
67640;SDS011;54434;50.096;20.082;2023-04-01T17:40:51;13.40;;;7.80;;
67640;SDS011;54434;50.096;20.082;2023-04-01T17:43:45;12.60;;;7.70;;
67640;SDS011;54434;50.096;20.082;2023-04-01T17:46:37;12.70;;;7.60;;
67640;SDS011;54434;50.096;20.082;2023-04-01T17:49:27;11.50;;;6.90;;
67640;SDS011;54434;50.096;20.082;2023-04-01T17:52:18;13.90;;;7.80;;
67640;SDS011;54434;50.096;20.082;2023-04-01T17:55:25;11.30;;;7.50;;
67640;SDS011;54434;50.096;20.082;2023-04-01T17:58:20;12.70;;;6.80;;
67640;SDS011;54434;50.096;20.082;2023-04-01T18:01:13;11.30;;;6.90;;
67640;SDS011;54434;50.096;20.082;2023-04-01T18:07:45;15.70;;;6.70;;
67640;SDS011;54434;50.096;20.082;2023-04-01T18:10:37;11.00;;;6.90;;
67640;SDS011;54434;50.096;20.082;2023-04-01T18:13:45;12.80;;;7.00;;
67640;SDS011;54434;50.096;20.082;2023-04-01T18:16:45;23.10;;;8.80;;
67640;SDS011;54434;50.096;20.082;2023-04-01T18:19:42;13.80;;;8.20;;
67640;SDS011;54434;50.096;20.082;2023-04-01T18:22:33;12.60;;;7.20;;
67640;SDS011;54434;50.096;20.082;2023-04-01T18:25:24;13.40;;;7.50;;
67640;SDS011;54434;50.096;20.082;2023-04-01T18:28:24;14.80;;;8.70;;
67640;SDS011;54434;50.096;20.082;2023-04-01T18:31:12;15.40;;;8.90;;
67640;SDS011;54434;50.096;20.082;2023-04-01T18:33:59;16.00;;;9.90;;